Time;durP1;ratioP1;P1;durP2;ratioP2;P2;SDS_P1;SDS_P2;PMS_P1;PMS_P2;Temp;Humidity;BMP_temperature;BMP_pressure;BME280_temperature;BME280_humidity;BME280_pressure;Samples;Min_cycle;Max_cycle;Signal;HPM_P1;HPM_P2
2022/06/19 00:01:57;;;;;;;5.40;5.00;;;;;;;18.84;100.00;99815.06;5050209;28;20212;-65
2022/06/19 00:04:24;;;;;;;4.97;4.77;;;;;;;18.82;100.00;99809.16;5050169;28;20211;-65
2022/06/19 00:06:51;;;;;;;12.93;5.57;;;;;;;18.81;100.00;99824.81;5047982;28;20231;-65
2022/06/19 00:09:18;;;;;;;5.60;5.20;;;;;;;18.80;100.00;99812.75;5047049;28;20200;-65
2022/06/19 00:11:45;;;;;;;8.20;4.50;;;;;;;18.75;100.00;99823.41;5051333;28;20196;-65
2022/06/19 00:14:14;;;;;;;5.83;5.37;;;;;;;18.73;100.00;99821.81;5050812;28;20197;-65
2022/06/19 00:16:41;;;;;;;5.33;5.03;;;;;;;18.68;100.00;99814.28;5050964;28;20558;-65
2022/06/19 00:19:08;;;;;;;5.40;5.03;;;;;;;18.73;100.00;99822.66;5041249;28;20636;-65
2022/06/19 00:21:35;;;;;;;5.70;4.17;;;;;;;18.72;100.00;99820.97;5050988;28;20701;-65
2022/06/19 00:24:02;;;;;;;5.63;5.33;;;;;;;18.71;100.00;99811.50;5050911;28;20553;-65
2022/06/19 00:26:29;;;;;;;5.67;5.27;;;;;;;18.66;100.00;99816.13;5043838;28;20596;-65
2022/06/19 00:28:56;;;;;;;5.20;4.90;;;;;;;18.62;100.00;99814.63;5037691;28;20197;-65
2022/06/19 00:31:26;;;;;;;5.20;4.63;;;;;;;18.59;100.00;99807.00;5051051;28;20203;-65
2022/06/19 00:33:53;;;;;;;5.50;5.10;;;;;;;18.60;100.00;99810.44;5041605;28;20630;-65
2022/06/19 00:36:21;;;;;;;5.70;5.13;;;;;;;18.60;100.00;99806.09;5038932;28;20189;-65
2022/06/19 00:38:48;;;;;;;6.77;5.50;;;;;;;18.58;100.00;99807.13;5036633;28;20233;-65
2022/06/19 00:41:15;;;;;;;5.17;4.97;;;;;;;18.58;100.00;99802.72;5037030;28;20661;-65
2022/06/19 00:43:57;;;;;;;5.50;5.10;;;;;;;18.48;100.00;99801.53;5035929;28;20205;-65
2022/06/19 00:46:55;;;;;;;5.90;5.43;;;;;;;18.38;100.00;99794.38;5053550;28;20217;-65
2022/06/19 00:49:29;;;;;;;6.00;5.50;;;;;;;18.32;100.00;99800.72;5029809;28;20196;-65
2022/06/19 00:52:02;;;;;;;6.87;5.33;;;;;;;18.31;100.00;99802.50;5051033;28;20201;-65
2022/06/19 00:54:32;;;;;;;5.27;5.07;;;;;;;18.28;100.00;99799.25;5047894;28;20577;-65
2022/06/19 00:56:59;;;;;;;5.70;5.20;;;;;;;18.26;100.00;99801.06;5048065;28;20258;-65
2022/06/19 00:59:26;;;;;;;8.00;5.30;;;;;;;18.26;100.00;99793.28;5042747;28;20216;-65
2022/06/19 01:01:54;;;;;;;5.90;5.60;;;;;;;18.27;100.00;99792.38;5052109;28;20666;-65
2022/06/19 01:04:27;;;;;;;5.93;5.03;;;;;;;18.26;100.00;99798.47;5042385;28;20225;-65
2022/06/19 01:06:54;;;;;;;6.13;5.77;;;;;;;18.26;100.00;99801.06;5042485;28;20225;-65
2022/06/19 01:09:21;;;;;;;6.43;6.07;;;;;;;18.26;100.00;99801.06;5037733;28;20209;-65
2022/06/19 01:11:48;;;;;;;5.60;5.30;;;;;;;18.29;100.00;99798.28;5036636;28;20254;-65
2022/06/19 01:14:19;;;;;;;5.57;5.27;;;;;;;18.24;100.00;99792.53;5042354;28;20262;-65
2022/06/19 01:16:46;;;;;;;5.97;5.47;;;;;;;18.28;100.00;99801.84;5047601;28;20258;-65
2022/06/19 01:19:22;;;;;;;7.10;6.50;;;;;;;18.24;100.00;99811.53;5053661;28;20207;-65
2022/06/19 01:21:53;;;;;;;5.80;5.50;;;;;;;18.23;100.00;99801.22;5048279;28;20580;-65
2022/06/19 01:24:31;;;;;;;5.50;5.10;;;;;;;18.19;100.00;99799.75;5053668;28;20205;-65
2022/06/19 01:27:01;;;;;;;6.43;5.40;;;;;;;18.14;100.00;99809.53;5053978;28;20217;-65
2022/06/19 01:29:31;;;;;;;6.07;5.77;;;;;;;18.07;100.00;99808.19;5053764;28;20639;-65
2022/06/19 01:32:01;;;;;;;8.27;5.53;;;;;;;18.06;100.00;99806.53;5053942;28;20200;-65
2022/06/19 01:34:35;;;;;;;5.93;5.40;;;;;;;18.03;100.00;99796.31;5044019;28;20200;-65
2022/06/19 01:37:08;;;;;;;5.77;5.33;;;;;;;18.00;100.00;99809.44;5053833;28;20299;-65
2022/06/19 01:39:38;;;;;;;5.30;5.00;;;;;;;17.98;100.00;99811.28;5053317;28;20584;-65
2022/06/19 01:42:08;;;;;;;6.50;6.10;;;;;;;18.00;100.00;99823.25;5053318;28;20197;-65
2022/06/19 01:44:35;;;;;;;5.73;5.43;;;;;;;17.98;100.00;99812.13;5037763;28;20236;-65
2022/06/19 01:47:03;;;;;;;6.57;6.07;;;;;;;17.88;100.00;99804.91;5053150;28;20213;-65
2022/06/19 01:49:31;;;;;;;5.70;5.37;;;;;;;17.94;100.00;99810.59;5052724;28;20193;-65
2022/06/19 01:51:58;;;;;;;5.83;5.47;;;;;;;17.89;100.00;99816.97;5052955;28;20278;-65
2022/06/19 01:54:32;;;;;;;5.63;5.33;;;;;;;17.75;100.00;99825.47;5043496;28;20204;-65
2022/06/19 01:56:59;;;;;;;6.10;5.80;;;;;;;17.79;100.00;99821.81;5051033;28;20231;-65
2022/06/19 01:59:31;;;;;;;10.57;6.00;;;;;;;17.83;100.00;99824.13;5052487;28;20214;-65
2022/06/19 02:02:00;;;;;;;5.90;5.50;;;;;;;17.81;100.00;99815.59;5052734;28;20200;-65
2022/06/19 02:04:27;;;;;;;5.73;5.43;;;;;;;17.76;100.00;99822.81;5052792;28;20206;-65
2022/06/19 02:06:58;;;;;;;7.03;6.63;;;;;;;17.72;100.00;99826.47;5041168;28;20218;-65
2022/06/19 02:09:25;;;;;;;5.97;5.57;;;;;;;17.70;100.00;99833.50;5038455;28;20692;-65
2022/06/19 02:11:53;;;;;;;5.57;5.27;;;;;;;17.70;100.00;99841.28;5035568;28;20209;-65
2022/06/19 02:14:21;;;;;;;6.07;5.57;;;;;;;17.73;100.00;99832.50;5035610;28;20205;-65
2022/06/19 02:16:50;;;;;;;5.87;5.47;;;;;;;17.72;100.00;99834.25;5051235;28;20224;-65
2022/06/19 02:19:19;;;;;;;6.07;5.67;;;;;;;17.67;100.00;99825.84;5052610;28;20628;-65
2022/06/19 02:21:48;;;;;;;6.77;6.17;;;;;;;17.64;100.00;99818.25;5052509;28;20212;-65
2022/06/19 02:24:19;;;;;;;5.80;5.50;;;;;;;17.59;100.00;99809.88;5052582;28;20228;-65
2022/06/19 02:26:47;;;;;;;6.10;5.70;;;;;;;17.65;100.00;99825.13;5041677;28;20213;-65
2022/06/19 02:29:21;;;;;;;6.27;5.67;;;;;;;17.61;100.00;99813.22;5038438;28;20288;-65
2022/06/19 02:31:53;;;;;;;6.33;5.93;;;;;;;17.72;100.00;99830.81;5033851;28;20689;-65
2022/06/19 02:34:26;;;;;;;6.20;5.80;;;;;;;17.72;100.00;99826.47;5040685;28;20209;-65
2022/06/19 02:36:56;;;;;;;5.50;5.20;;;;;;;17.69;100.00;99828.38;5043903;28;20227;-65
2022/06/19 02:39:38;;;;;;;7.43;5.63;;;;;;;17.67;100.00;99825.84;5052271;28;20703;-65
2022/06/19 02:42:18;;;;;;;5.90;5.50;;;;;;;17.63;100.00;99837.34;5052193;28;20196;-65
2022/06/19 02:44:45;;;;;;;6.27;5.87;;;;;;;17.55;100.00;99828.22;5052214;28;20215;-65
2022/06/19 02:47:14;;;;;;;10.23;5.53;;;;;;;17.59;100.00;99830.63;5052011;28;20719;-65
2022/06/19 02:49:41;;;;;;;6.20;5.80;;;;;;;17.50;100.00;99810.34;5048481;28;20209;-65
2022/06/19 02:52:10;;;;;;;6.03;5.70;;;;;;;17.68;100.00;99832.72;5040550;28;20200;-65
2022/06/19 02:54:37;;;;;;;6.47;6.07;;;;;;;17.59;100.00;99815.06;5034762;28;20284;-65
2022/06/19 02:57:05;;;;;;;6.37;5.63;;;;;;;17.69;100.00;99829.22;5050762;28;20205;-65
2022/06/19 02:59:33;;;;;;;5.60;5.27;;;;;;;17.72;100.00;99836.00;5051809;28;20611;-65
2022/06/19 03:02:00;;;;;;;6.03;5.53;;;;;;;17.73;100.00;99828.16;5051499;28;20767;-65
2022/06/19 03:04:34;;;;;;;6.20;5.70;;;;;;;17.67;100.00;99812.09;5051777;28;20668;-65
2022/06/19 03:07:02;;;;;;;6.53;6.03;;;;;;;17.74;100.00;99824.63;5051654;28;20220;-65
2022/06/19 03:09:29;;;;;;;6.23;5.83;;;;;;;17.75;100.00;99830.66;5044681;28;20227;-65
2022/06/19 03:11:56;;;;;;;5.63;5.33;;;;;;;17.74;100.00;99832.41;5050780;28;20197;-65
2022/06/19 03:14:24;;;;;;;5.93;5.53;;;;;;;17.71;100.00;99824.78;5051703;28;20205;-65
2022/06/19 03:16:50;;;;;;;5.77;5.37;;;;;;;17.71;100.00;99822.19;5043794;28;20198;-65
2022/06/19 03:19:19;;;;;;;5.43;5.13;;;;;;;17.68;100.00;99824.94;5041917;28;20209;-65
2022/06/19 03:21:49;;;;;;;5.70;5.20;;;;;;;17.66;100.00;99820.78;5051574;28;20200;-65
2022/06/19 03:24:16;;;;;;;5.93;5.60;;;;;;;17.70;100.00;99830.91;5050881;28;20219;-65
2022/06/19 03:26:43;;;;;;;6.03;5.73;;;;;;;17.75;100.00;99830.66;5051438;28;20220;-65
2022/06/19 03:29:10;;;;;;;5.47;4.97;;;;;;;17.77;100.00;99832.25;5051423;28;20664;-65
2022/06/19 03:31:37;;;;;;;6.07;5.77;;;;;;;17.78;100.00;99826.16;5051252;28;20284;-65
2022/06/19 03:34:04;;;;;;;6.47;6.17;;;;;;;17.83;100.00;99818.94;5051079;28;20216;-65
2022/06/19 03:36:30;;;;;;;6.47;5.70;;;;;;;17.90;100.00;99819.47;5048418;28;20200;-65
2022/06/19 03:38:59;;;;;;;6.63;5.80;;;;;;;18.02;100.00;99812.78;5051071;28;20204;-65
2022/06/19 03:41:25;;;;;;;6.00;5.70;;;;;;;18.13;100.00;99824.25;5051029;28;20215;-65
2022/06/19 03:43:52;;;;;;;5.90;5.40;;;;;;;18.27;100.00;99818.31;5051388;28;20691;-65
2022/06/19 03:46:20;;;;;;;8.47;5.43;;;;;;;18.43;100.00;99824.34;5051015;28;20219;-65
2022/06/19 03:48:50;;;;;;;6.40;6.10;;;;;;;18.59;100.00;99830.38;5041736;28;20668;-65
2022/06/19 03:51:17;;;;;;;7.70;7.17;;;;;;;18.68;100.00;99829.84;5050303;28;20208;-65
2022/06/19 03:53:45;;;;;;;8.53;7.70;;;;;;;18.73;100.00;99830.44;5051063;28;20259;-65
2022/06/19 03:56:17;;;;;;;7.33;6.83;;;;;;;18.81;100.00;99825.66;5050197;28;20213;-65
2022/06/19 03:58:46;;;;;;;6.63;6.20;;;;;;;18.96;100.00;99820.50;5051356;28;20193;-65
2022/06/19 04:01:15;;;;;;;6.10;5.80;;;;;;;19.14;100.00;99827.22;5043774;28;20213;-65
2022/06/19 04:03:42;;;;;;;5.77;5.20;;;;;;;19.37;100.00;99832.75;5051204;28;20211;-65
2022/06/19 04:06:10;;;;;;;5.60;5.30;;;;;;;19.60;100.00;99831.41;5043914;28;20204;-65
2022/06/19 04:08:37;;;;;;;5.60;5.30;;;;;;;19.78;100.00;99835.50;5051125;28;20199;-65
2022/06/19 04:11:05;;;;;;;5.90;5.60;;;;;;;19.97;100.00;99839.59;5049447;28;20205;-64
2022/06/19 04:13:34;;;;;;;5.13;4.93;;;;;;;20.20;100.00;99847.63;5052327;28;20732;-65
2022/06/19 04:16:02;;;;;;;4.77;4.43;;;;;;;20.41;100.00;99843.72;5053739;28;20697;-65
2022/06/19 04:18:30;;;;;;;4.97;4.67;;;;;;;20.55;100.00;99842.81;5039200;28;20199;-65
2022/06/19 04:20:57;;;;;;;4.83;4.47;;;;;;;20.69;100.00;99848.00;5044566;28;20303;-65
2022/06/19 04:23:24;;;;;;;4.60;4.40;;;;;;;20.84;100.00;99851.38;5054947;28;20577;-65
2022/06/19 04:25:52;;;;;;;4.87;4.37;;;;;;;20.95;100.00;99828.88;5054978;28;20206;-65
2022/06/19 04:28:22;;;;;;;4.73;4.53;;;;;;;21.22;100.00;99854.09;5047587;28;20249;-65
2022/06/19 04:30:50;;;;;;;4.50;4.30;;;;;;;21.44;100.00;99854.31;5046588;28;20211;-65
2022/06/19 04:33:18;;;;;;;5.13;4.83;;;;;;;21.59;100.00;99852.44;5054517;28;20212;-65
2022/06/19 04:35:45;;;;;;;6.63;5.27;;;;;;;21.75;99.82;99856.50;5040626;28;20204;-65
2022/06/19 04:38:13;;;;;;;4.83;4.63;;;;;;;21.70;99.04;99814.25;5054916;28;20228;-65
2022/06/19 04:40:40;;;;;;;5.30;5.00;;;;;;;22.11;99.54;99841.88;5053319;28;20251;-65
2022/06/19 04:43:07;;;;;;;5.00;4.80;;;;;;;22.34;98.39;99849.75;5054565;28;20664;-65
2022/06/19 04:45:34;;;;;;;4.93;4.73;;;;;;;22.60;98.82;99847.03;5048551;28;20193;-65
2022/06/19 04:48:02;;;;;;;4.27;4.07;;;;;;;22.74;97.34;99850.38;5054503;28;20223;-65
2022/06/19 04:50:29;;;;;;;7.57;5.13;;;;;;;22.92;95.91;99853.41;5051575;28;20205;-65
2022/06/19 04:52:56;;;;;;;5.30;5.00;;;;;;;23.12;95.77;99851.91;5053387;28;20207;-65
2022/06/19 04:55:23;;;;;;;5.37;5.07;;;;;;;23.28;95.58;99855.06;5054298;28;20668;-65
2022/06/19 04:57:50;;;;;;;4.63;4.43;;;;;;;23.46;94.44;99853.69;5044537;28;20295;-65
2022/06/19 05:00:19;;;;;;;4.40;4.20;;;;;;;23.62;92.45;99859.41;5041149;28;20213;-65
2022/06/19 05:02:49;;;;;;;3.90;3.80;;;;;;;23.70;90.61;99859.69;5051702;28;20675;-65
2022/06/19 05:05:20;;;;;;;4.47;4.10;;;;;;;23.86;91.59;99865.41;5043001;28;20759;-65
2022/06/19 05:07:47;;;;;;;3.73;3.63;;;;;;;23.99;89.95;99860.88;5052696;28;20217;-65
2022/06/19 05:10:14;;;;;;;4.63;4.00;;;;;;;24.11;89.00;99861.69;5039872;28;20201;-65
2022/06/19 05:12:41;;;;;;;4.03;3.83;;;;;;;24.19;89.16;99834.94;5054020;28;20258;-65
2022/06/19 05:15:10;;;;;;;4.73;4.53;;;;;;;24.42;90.32;99860.13;5053834;28;20253;-65
2022/06/19 05:17:37;;;;;;;3.90;3.80;;;;;;;24.56;88.63;99862.47;5038187;28;20197;-65
2022/06/19 05:20:05;;;;;;;4.40;4.13;;;;;;;24.55;87.79;99860.81;5046117;28;20676;-65
2022/06/19 05:22:35;;;;;;;5.03;4.73;;;;;;;24.67;87.17;99864.22;5053622;28;20201;-65
2022/06/19 05:25:04;;;;;;;4.93;4.47;;;;;;;24.71;88.18;99873.53;5052389;28;20583;-65
2022/06/19 05:27:31;;;;;;;4.73;4.43;;;;;;;24.63;86.72;99868.06;5053673;28;20307;-65
2022/06/19 05:29:58;;;;;;;4.50;4.30;;;;;;;24.65;87.19;99877.47;5040152;28;20200;-66
2022/06/19 05:32:26;;;;;;;4.93;4.73;;;;;;;24.78;88.83;99872.88;5038521;28;20631;-65
2022/06/19 05:34:53;;;;;;;4.53;4.33;;;;;;;24.91;87.57;99878.81;5053517;28;20200;-65
2022/06/19 05:37:20;;;;;;;4.63;4.43;;;;;;;24.88;84.95;99868.59;5053339;28;20224;-65
2022/06/19 05:39:48;;;;;;;4.53;4.23;;;;;;;24.89;88.83;99867.63;5044510;28;20201;-65
2022/06/19 05:42:15;;;;;;;6.23;4.50;;;;;;;25.06;87.80;99872.34;5041718;28;20197;-65
2022/06/19 05:44:42;;;;;;;4.17;3.97;;;;;;;25.27;85.47;99868.88;5053467;28;20200;-65
2022/06/19 05:47:09;;;;;;;4.23;4.00;;;;;;;25.49;84.47;99876.66;5045757;28;20218;-66
2022/06/19 05:49:36;;;;;;;4.10;3.90;;;;;;;25.69;83.13;99878.44;5050868;28;20584;-65
2022/06/19 05:52:03;;;;;;;4.07;3.87;;;;;;;25.87;83.33;99858.50;5053258;28;20290;-65
2022/06/19 05:54:30;;;;;;;4.37;4.17;;;;;;;26.07;81.57;99875.16;5053201;28;20673;-65
2022/06/19 05:56:59;;;;;;;3.90;3.77;;;;;;;26.24;80.91;99882.41;5053222;28;20139;-65
2022/06/19 05:59:26;;;;;;;3.73;3.40;;;;;;;26.36;79.38;99880.53;5041610;28;20197;-65
2022/06/19 06:01:53;;;;;;;3.40;3.30;;;;;;;26.32;81.11;99876.50;5041643;28;20200;-65
2022/06/19 06:04:19;;;;;;;3.90;3.70;;;;;;;26.34;82.19;99878.03;5052964;28;20196;-65
2022/06/19 06:06:46;;;;;;;4.13;3.83;;;;;;;26.39;81.40;99885.53;5048684;28;20204;-65
2022/06/19 06:09:14;;;;;;;3.57;3.40;;;;;;;26.38;78.91;99883.84;5052802;28;20041;-65
2022/06/19 06:11:41;;;;;;;3.60;3.27;;;;;;;26.35;79.74;99878.88;5048629;28;20197;-65
2022/06/19 06:14:09;;;;;;;3.63;3.50;;;;;;;26.60;82.14;99878.34;5052495;28;20200;-65
2022/06/19 06:16:36;;;;;;;5.30;4.90;;;;;;;26.61;78.01;99880.03;5052736;28;20201;-65
2022/06/19 06:19:03;;;;;;;3.90;3.73;;;;;;;26.59;79.91;99887.22;5046117;28;20207;-66
2022/06/19 06:21:31;;;;;;;3.73;3.63;;;;;;;26.82;81.37;99878.13;5042630;28;20201;-65
2022/06/19 06:23:58;;;;;;;4.30;4.10;;;;;;;27.08;79.95;99883.66;5041933;28;20239;-65
2022/06/19 06:26:27;;;;;;;4.43;4.23;;;;;;;27.34;76.21;99873.38;5049638;28;20208;-65
2022/06/19 06:28:55;;;;;;;4.60;3.80;;;;;;;27.50;77.21;99871.03;5052413;28;20217;-65
2022/06/19 06:31:24;;;;;;;4.27;4.10;;;;;;;27.60;77.79;99871.84;5045332;28;20207;-65
2022/06/19 06:33:50;;;;;;;3.90;3.70;;;;;;;27.71;77.89;99871.69;5043576;28;20197;-66
2022/06/19 06:36:18;;;;;;;4.10;3.90;;;;;;;27.83;75.97;99885.50;5052038;28;20580;-66
2022/06/19 06:38:45;;;;;;;3.93;3.63;;;;;;;28.08;74.58;99877.78;5052168;28;20245;-66
2022/06/19 06:41:14;;;;;;;3.97;3.77;;;;;;;28.36;73.13;99875.16;5052053;28;20200;-66
2022/06/19 06:43:45;;;;;;;3.93;3.73;;;;;;;28.44;72.45;99870.78;5051920;28;20197;-66
2022/06/19 06:46:14;;;;;;;5.28;3.67;;;;;;;28.56;72.90;99868.78;5051929;28;20204;-66
2022/06/19 06:48:43;;;;;;;3.67;3.47;;;;;;;28.63;71.00;99872.47;5051883;28;20216;-66
2022/06/19 06:51:11;;;;;;;3.50;3.30;;;;;;;28.86;67.96;99873.72;5051895;28;20592;-66
2022/06/19 06:53:38;;;;;;;4.35;4.15;;;;;;;29.05;71.84;99870.06;5042533;28;20196;-66
2022/06/19 06:56:05;;;;;;;3.30;3.00;;;;;;;28.96;71.55;99869.19;5050692;28;20205;-66
2022/06/19 06:58:33;;;;;;;3.67;3.38;;;;;;;29.13;69.95;99871.00;5051948;28;20192;-66
2022/06/19 07:01:07;;;;;;;4.10;3.90;;;;;;;29.25;71.19;99874.25;5044079;28;20201;-66
2022/06/19 07:03:34;;;;;;;3.90;3.70;;;;;;;29.42;68.89;99867.25;5051377;28;20250;-66
2022/06/19 07:06:02;;;;;;;3.80;3.60;;;;;;;29.48;69.41;99867.47;5044279;28;20283;-66
2022/06/19 07:08:29;;;;;;;4.68;4.03;;;;;;;29.65;69.62;99865.75;5051542;28;20223;-66
2022/06/19 07:10:56;;;;;;;3.80;3.50;;;;;;;29.70;70.33;99871.41;5051967;28;20206;-66
2022/06/19 07:13:23;;;;;;;3.35;3.25;;;;;;;29.79;68.64;99870.44;5051610;28;20292;-66
2022/06/19 07:15:51;;;;;;;3.95;3.33;;;;;;;29.91;70.42;99871.88;5040013;28;20665;-66
2022/06/19 07:18:18;;;;;;;3.47;3.38;;;;;;;30.00;67.23;99873.56;5037003;28;20250;-66
2022/06/19 07:20:45;;;;;;;3.88;3.42;;;;;;;30.00;65.52;99873.56;5047773;28;20726;-66
2022/06/19 07:23:13;;;;;;;3.40;3.30;;;;;;;30.09;64.05;99864.69;5040375;28;20217;-66
2022/06/19 07:25:40;;;;;;;3.38;3.15;;;;;;;30.24;66.89;99870.22;5051314;28;20266;-66
2022/06/19 07:28:07;;;;;;;3.33;3.22;;;;;;;30.50;62.90;99870.94;5044788;28;20216;-66
2022/06/19 07:30:34;;;;;;;3.13;3.00;;;;;;;30.65;64.41;99874.63;5045643;28;20197;-66
2022/06/19 07:33:01;;;;;;;3.17;3.08;;;;;;;30.71;66.00;99870.50;5051512;28;20199;-66
2022/06/19 07:35:28;;;;;;;3.25;3.05;;;;;;;30.72;60.46;99874.81;5040043;28;20228;-66
2022/06/19 07:37:55;;;;;;;2.90;2.80;;;;;;;30.89;56.76;99865.88;5051277;28;20286;-67
2022/06/19 07:40:25;;;;;;;3.17;2.97;;;;;;;31.12;63.32;99856.31;5051462;28;20679;-66
2022/06/19 07:42:52;;;;;;;2.78;2.67;;;;;;;31.29;57.35;99870.38;5050559;28;20222;-66
2022/06/19 07:45:19;;;;;;;2.70;2.60;;;;;;;31.33;61.70;99863.75;5050277;28;20208;-66
2022/06/19 07:50:30;;;;;;;2.53;2.42;;;;;;;31.43;55.67;99863.56;5051019;28;20399;-66
2022/06/19 07:52:57;;;;;;;2.05;1.95;;;;;;;31.34;51.07;99864.59;5041339;28;20685;-66
2022/06/19 07:55:27;;;;;;;1.65;1.55;;;;;;;31.44;53.14;99854.66;5050940;28;20668;-66
2022/06/19 07:57:54;;;;;;;1.73;1.73;;;;;;;31.62;50.74;99863.25;5039647;28;20201;-66
2022/06/19 08:00:24;;;;;;;1.88;1.88;;;;;;;31.67;56.17;99856.41;5046051;28;20205;-66
2022/06/19 08:02:53;;;;;;;1.33;1.33;;;;;;;31.61;47.69;99856.28;5050786;28;20196;-67
2022/06/19 08:05:22;;;;;;;2.13;1.77;;;;;;;31.79;47.83;99870.16;5050904;28;20583;-67
2022/06/19 08:07:50;;;;;;;2.03;1.88;;;;;;;31.43;48.50;99863.56;5050644;28;20303;-66
2022/06/19 08:10:21;;;;;;;1.65;1.60;;;;;;;31.01;49.32;99855.84;5050707;28;20197;-67
2022/06/19 08:12:49;;;;;;;1.80;1.63;;;;;;;31.27;46.78;99858.31;5050385;28;20233;-67
2022/06/19 08:15:17;;;;;;;1.63;1.52;;;;;;;31.21;46.95;99863.25;5050867;28;20201;-67
2022/06/19 08:17:44;;;;;;;2.40;1.60;;;;;;;31.21;47.49;99860.59;5050539;28;20197;-67
2022/06/19 08:20:12;;;;;;;1.30;1.30;;;;;;;31.30;45.92;99853.50;5050661;28;20197;-67
2022/06/19 08:22:39;;;;;;;1.45;1.45;;;;;;;30.96;46.17;99861.63;5050464;28;20251;-67
2022/06/19 08:25:06;;;;;;;1.95;1.00;;;;;;;30.79;39.53;99854.66;5050368;28;20197;-67
2022/06/19 08:27:36;;;;;;;1.10;0.90;;;;;;;30.30;40.03;99858.16;5050531;28;20738;-67
2022/06/19 08:30:06;;;;;;;1.77;0.75;;;;;;;30.11;38.06;99860.06;5050525;28;20616;-67
2022/06/19 08:32:33;;;;;;;0.70;0.70;;;;;;;30.10;41.32;99855.78;5050739;28;20200;-67
2022/06/19 08:35:00;;;;;;;0.80;0.80;;;;;;;30.24;40.38;99848.22;5049036;28;20211;-67
2022/06/19 08:37:27;;;;;;;0.80;0.80;;;;;;;30.29;40.38;99851.19;5050307;28;20601;-66
2022/06/19 08:39:54;;;;;;;0.93;0.93;;;;;;;30.35;40.47;99851.38;5049507;28;20200;-67
2022/06/19 08:42:38;;;;;;;1.13;1.02;;;;;;;30.61;40.60;99846.84;5049534;28;20569;-67
2022/06/19 08:45:24;;;;;;;1.25;1.25;;;;;;;30.57;42.68;99834.06;5049205;28;20657;-66
2022/06/19 08:48:14;;;;;;;3.60;1.20;;;;;;;30.41;44.19;99842.81;5050196;28;20224;-67
2022/06/19 08:50:48;;;;;;;1.00;1.00;;;;;;;30.37;40.78;99838.84;5050527;28;20201;-67
2022/06/19 08:53:30;;;;;;;4.22;1.60;;;;;;;30.19;39.91;99846.03;5046985;28;20311;-67
2022/06/19 08:56:02;;;;;;;1.30;1.20;;;;;;;30.30;46.63;99834.34;5030550;28;20198;-67
2022/06/19 08:58:38;;;;;;;1.52;1.05;;;;;;;30.57;45.15;99829.63;5049402;28;20274;-67
2022/06/19 09:01:13;;;;;;;1.00;1.00;;;;;;;30.93;43.07;99835.44;5053788;28;20203;-67
2022/06/19 09:06:43;;;;;;;0.90;0.90;;;;;;;31.32;42.34;99829.47;5053747;28;20230;-67
2022/06/19 09:09:28;;;;;;;1.10;1.00;;;;;;;31.55;42.10;99814.53;5053259;28;20243;-66
2022/06/19 09:12:08;;;;;;;1.00;1.00;;;;;;;31.86;48.50;99822.56;5038678;28;20197;-67
2022/06/19 09:14:37;;;;;;;1.30;1.20;;;;;;;32.17;45.16;99821.63;5052694;28;20215;-67
2022/06/19 09:17:11;;;;;;;0.85;0.85;;;;;;;32.30;38.04;99830.81;5053594;28;20203;-67
2022/06/19 09:19:49;;;;;;;1.20;1.20;;;;;;;31.61;39.49;99827.13;5053831;28;20615;-67
2022/06/19 09:22:47;;;;;;;1.00;1.00;;;;;;;31.46;40.97;99820.84;5053443;28;20208;-67
2022/06/19 09:25:39;;;;;;;2.47;1.55;;;;;;;31.28;42.21;99799.81;5053455;28;20200;-67
2022/06/19 09:28:16;;;;;;;2.10;1.00;;;;;;;31.46;41.14;99804.94;5053387;28;20220;-67
2022/06/19 09:30:48;;;;;;;1.35;1.02;;;;;;;31.90;43.34;99819.38;5052855;28;20201;-67
2022/06/19 09:33:21;;;;;;;1.48;0.80;;;;;;;31.17;39.93;99816.94;5053177;28;20608;-67
2022/06/19 09:35:53;;;;;;;0.82;0.82;;;;;;;30.67;38.40;99808.28;5052287;28;20267;-67
2022/06/19 09:38:26;;;;;;;0.93;0.93;;;;;;;30.38;38.79;99815.81;5052934;28;20714;-67
2022/06/19 09:40:58;;;;;;;1.70;0.80;;;;;;;30.24;39.60;99817.31;5052362;28;20201;-67
2022/06/19 09:43:32;;;;;;;1.00;1.00;;;;;;;29.73;39.62;99810.28;5052795;28;20201;-67
2022/06/19 09:46:03;;;;;;;0.73;0.73;;;;;;;29.50;38.82;99811.84;5053168;28;20258;-67
2022/06/19 09:48:40;;;;;;;0.95;0.95;;;;;;;29.75;41.67;99805.69;5053044;28;20248;-67
2022/06/19 09:51:12;;;;;;;0.88;0.88;;;;;;;29.81;39.25;99796.28;5046998;28;20205;-67
2022/06/19 09:53:46;;;;;;;0.88;0.88;;;;;;;29.16;43.44;99791.47;5043774;28;20197;-67
2022/06/19 09:56:20;;;;;;;0.95;0.95;;;;;;;29.46;42.64;99810.50;5053057;28;20310;-68
2022/06/19 09:58:56;;;;;;;1.02;1.02;;;;;;;29.70;42.37;99800.88;5052710;28;20598;-67
2022/06/19 10:01:25;;;;;;;0.82;0.82;;;;;;;29.89;41.14;99799.81;5052677;28;20671;-67
2022/06/19 10:04:00;;;;;;;0.95;0.95;;;;;;;29.96;42.05;99798.19;5052499;28;20197;-67
2022/06/19 10:06:35;;;;;;;1.35;1.30;;;;;;;30.18;43.46;99787.03;5052807;28;20676;-67
2022/06/19 10:09:05;;;;;;;1.10;1.10;;;;;;;30.20;43.86;99790.34;5052614;28;20588;-67
2022/06/19 10:11:37;;;;;;;1.00;1.00;;;;;;;30.28;41.09;99801.91;5051990;28;20278;-67
2022/06/19 10:14:09;;;;;;;1.02;1.02;;;;;;;30.25;40.02;99794.31;5052828;28;20196;-67
2022/06/19 10:16:45;;;;;;;0.85;0.85;;;;;;;29.94;40.68;99789.63;5052506;28;20208;-67
2022/06/19 10:19:18;;;;;;;1.25;1.25;;;;;;;30.02;42.46;99781.69;5052620;28;20283;-67
2022/06/19 10:24:47;;;;;;;0.82;0.82;;;;;;;30.26;38.78;99774.81;5052510;28;20294;-68
2022/06/19 10:27:21;;;;;;;0.98;0.98;;;;;;;30.15;42.66;99771.47;5052562;28;20210;-67
2022/06/19 10:30:02;;;;;;;3.13;1.10;;;;;;;29.75;40.89;99773.97;5051946;28;20216;-66
2022/06/19 10:32:46;;;;;;;0.73;0.73;;;;;;;29.59;43.45;99779.19;5051800;28;20266;-68
2022/06/19 10:35:23;;;;;;;0.77;0.77;;;;;;;29.75;43.77;99775.78;5052362;28;20200;-68
2022/06/19 10:38:07;;;;;;;0.90;0.90;;;;;;;29.88;39.81;99774.41;5050911;28;20224;-67
2022/06/19 10:40:42;;;;;;;1.10;1.10;;;;;;;30.24;42.30;99763.56;5052114;28;20205;-68
2022/06/19 10:43:23;;;;;;;1.00;1.00;;;;;;;30.54;43.17;99760.31;5052090;28;20208;-67
2022/06/19 10:45:53;;;;;;;1.30;1.20;;;;;;;30.57;44.03;99752.03;5051826;28;20192;-67
2022/06/19 10:48:28;;;;;;;1.00;1.00;;;;;;;30.57;42.27;99749.38;5051923;28;20596;-67
2022/06/19 10:51:14;;;;;;;1.00;1.00;;;;;;;30.56;41.41;99753.06;5051734;28;20199;-67
2022/06/19 10:53:57;;;;;;;1.10;1.00;;;;;;;30.62;41.32;99737.34;5051895;28;20197;-68
2022/06/19 10:56:36;;;;;;;0.85;0.85;;;;;;;30.81;40.93;99744.09;5052043;28;20207;-68
2022/06/19 10:59:04;;;;;;;1.05;1.05;;;;;;;30.93;44.90;99744.56;5051698;28;20613;-67
2022/06/19 11:04:37;;;;;;;0.93;0.93;;;;;;;30.95;39.46;99748.75;5050642;28;20690;-68
2022/06/19 11:07:10;;;;;;;0.90;0.90;;;;;;;30.66;38.91;99737.84;5051481;28;20205;-67
2022/06/19 11:09:42;;;;;;;1.10;1.10;;;;;;;30.45;41.54;99746.25;5052027;28;20216;-68
2022/06/19 11:12:18;;;;;;;1.02;1.02;;;;;;;30.14;42.46;99747.84;5051494;28;20216;-68
2022/06/19 11:14:48;;;;;;;1.55;0.98;;;;;;;30.13;43.36;99738.25;5051431;28;20204;-68
2022/06/19 11:17:28;;;;;;;1.50;1.40;;;;;;;30.20;44.20;99737.44;5032830;28;20704;-68
2022/06/19 11:19:55;;;;;;;0.85;0.85;;;;;;;30.12;40.18;99740.06;5031448;28;20212;-68
2022/06/19 11:22:40;;;;;;;1.00;1.00;;;;;;;30.03;41.16;99730.47;5030944;28;22190;-68
2022/06/19 11:25:35;;;;;;;1.00;1.00;;;;;;;30.34;45.29;99735.16;5033491;28;20743;-67
2022/06/19 11:28:06;;;;;;;1.13;0.98;;;;;;;30.24;40.71;99737.13;5031491;28;20229;-67
2022/06/19 11:30:36;;;;;;;1.27;1.08;;;;;;;30.05;38.61;99739.06;5046740;28;20224;-69
2022/06/19 11:33:06;;;;;;;1.00;1.00;;;;;;;29.91;38.96;99739.69;5051155;28;20205;-68
2022/06/19 11:35:53;;;;;;;0.93;0.93;;;;;;;29.81;40.39;99738.97;5049692;28;20672;-68
2022/06/19 11:38:36;;;;;;;0.60;0.60;;;;;;;29.76;39.49;99738.59;5050282;28;20232;-68
2022/06/19 11:41:16;;;;;;;1.08;1.08;;;;;;;29.44;39.20;99738.47;5051016;28;20201;-68
2022/06/19 11:43:43;;;;;;;1.05;0.90;;;;;;;28.89;40.54;99738.81;5051279;28;20196;-68
2022/06/19 11:46:17;;;;;;;0.90;0.90;;;;;;;29.01;41.95;99734.94;5051065;28;20723;-68
2022/06/19 11:48:44;;;;;;;3.50;0.80;;;;;;;29.17;41.51;99724.47;5051158;28;20303;-68
2022/06/19 11:51:18;;;;;;;0.80;0.80;;;;;;;29.49;40.83;99725.66;5050987;28;20207;-68
2022/06/19 11:53:53;;;;;;;0.85;0.85;;;;;;;29.84;40.61;99724.63;5051206;28;20192;-68
2022/06/19 11:56:31;;;;;;;2.88;1.08;;;;;;;29.83;38.66;99713.22;5049822;28;20586;-67